Time;durP1;ratioP1;P1;durP2;ratioP2;P2;SDS_P1;SDS_P2;PMS_P1;PMS_P2;Temp;Humidity;BMP_temperature;BMP_pressure;BME280_temperature;BME280_humidity;BME280_pressure;Samples;Min_cycle;Max_cycle;Signal;HPM_P1;HPM_P2
2023/01/23 00:00:47;;;;;;;26.33;18.17;;;;;;;0.15;77.09;100273.47;5105230;28;20040;-74
2023/01/23 00:03:13;;;;;;;25.30;19.05;;;;;;;0.71;77.25;100364.81;5105196;28;20113;-74
2023/01/23 00:05:41;;;;;;;26.83;20.00;;;;;;;0.71;77.45;100361.34;5088623;28;20192;-74
2023/01/23 00:08:08;;;;;;;25.08;16.92;;;;;;;0.71;77.20;100359.59;5106275;28;20044;-73
2023/01/23 00:10:34;;;;;;;25.02;17.40;;;;;;;0.71;77.28;100356.13;5106121;28;20040;-74
2023/01/23 00:13:03;;;;;;;25.10;18.10;;;;;;;0.71;77.44;100364.81;5106392;28;20204;-74
2023/01/23 00:15:31;;;;;;;23.55;17.02;;;;;;;0.25;77.31;100299.56;5106324;28;20288;-74
2023/01/23 00:17:58;;;;;;;24.52;18.40;;;;;;;0.70;77.52;100372.66;5105134;28;20196;-74
2023/01/23 00:20:25;;;;;;;25.13;18.65;;;;;;;0.70;77.42;100364.81;5106210;28;20044;-74
2023/01/23 00:22:52;;;;;;;23.15;16.35;;;;;;;0.70;77.37;100370.91;5105002;28;20047;-74
2023/01/23 00:25:19;;;;;;;22.95;17.02;;;;;;;0.73;77.31;100377.88;5105113;28;20040;-74
2023/01/23 00:27:45;;;;;;;24.33;17.15;;;;;;;0.54;77.24;100349.16;5106052;28;20280;-74
2023/01/23 00:30:14;;;;;;;25.80;17.77;;;;;;;0.71;77.49;100370.03;5106416;28;20036;-74
2023/01/23 00:32:42;;;;;;;21.80;16.73;;;;;;;0.57;77.36;100333.50;5104982;28;20069;-74
2023/01/23 00:35:08;;;;;;;21.85;15.05;;;;;;;0.75;77.25;100363.09;5104934;28;20046;-74
2023/01/23 00:37:35;;;;;;;23.60;15.90;;;;;;;0.74;77.55;100372.66;5104905;28;20227;-74
2023/01/23 00:40:02;;;;;;;21.60;15.93;;;;;;;0.74;77.44;100370.03;5106023;28;20299;-74
2023/01/23 00:42:29;;;;;;;21.75;15.98;;;;;;;0.75;77.24;100368.31;5105744;28;20062;-74
2023/01/23 00:44:56;;;;;;;25.42;16.67;;;;;;;0.75;77.57;100371.78;5106041;28;20063;-74
2023/01/23 00:47:24;;;;;;;23.60;16.95;;;;;;;0.73;77.76;100368.28;5104868;28;20048;-73
2023/01/23 00:49:52;;;;;;;22.70;16.40;;;;;;;0.72;77.78;100369.16;5105675;28;20044;-74
2023/01/23 00:52:19;;;;;;;24.55;17.35;;;;;;;0.73;77.87;100359.59;5106071;28;20040;-74
2023/01/23 00:54:46;;;;;;;21.17;15.63;;;;;;;0.28;77.87;100291.75;5105977;28;20052;-73
2023/01/23 00:57:13;;;;;;;24.63;17.20;;;;;;;0.73;77.89;100362.22;5105952;28;20040;-73
2023/01/23 00:59:39;;;;;;;23.45;16.58;;;;;;;0.74;77.88;100353.50;5105263;28;20319;-73
2023/01/23 01:02:06;;;;;;;24.90;17.48;;;;;;;0.73;77.98;100355.25;5105447;28;20246;-73
2023/01/23 01:04:35;;;;;;;23.98;16.80;;;;;;;0.72;77.91;100358.72;5105427;28;20040;-73
2023/01/23 01:07:02;;;;;;;26.45;18.38;;;;;;;0.70;78.16;100365.69;5107428;28;20314;-73
2023/01/23 01:09:29;;;;;;;25.77;18.23;;;;;;;0.69;78.20;100368.28;5108665;28;20048;-73
2023/01/23 01:11:56;;;;;;;24.65;17.65;;;;;;;0.68;78.22;100370.03;5109876;28;20052;-73
2023/01/23 01:14:23;;;;;;;27.15;18.65;;;;;;;0.68;78.29;100369.16;5108574;28;20036;-73
2023/01/23 01:16:49;;;;;;;23.63;17.30;;;;;;;0.68;78.39;100367.44;5109871;28;20040;-74
2023/01/23 01:19:18;;;;;;;26.60;17.35;;;;;;;0.71;78.42;100359.59;5108483;28;20036;-73
2023/01/23 01:21:47;;;;;;;26.10;16.98;;;;;;;0.73;78.40;100357.00;5109296;28;20035;-74
2023/01/23 01:24:14;;;;;;;26.30;18.35;;;;;;;0.74;78.40;100361.34;5109206;28;20055;-74
2023/01/23 01:26:41;;;;;;;28.15;18.15;;;;;;;0.75;78.47;100356.13;5109528;28;20047;-73
2023/01/23 01:29:07;;;;;;;30.27;19.77;;;;;;;0.79;78.32;100365.69;5109328;28;20068;-74
2023/01/23 01:31:34;;;;;;;29.58;18.33;;;;;;;0.80;78.43;100356.13;5108192;28;20044;-73
2023/01/23 01:34:01;;;;;;;26.98;18.67;;;;;;;0.78;78.42;100361.34;5108422;28;20043;-73
2023/01/23 01:36:28;;;;;;;32.80;20.55;;;;;;;0.77;78.60;100359.59;5109573;28;20046;-73
2023/01/23 01:38:56;;;;;;;34.05;20.58;;;;;;;0.78;78.60;100363.09;5109537;28;20048;-73
2023/01/23 01:41:23;;;;;;;34.75;20.92;;;;;;;0.79;78.54;100364.81;5108002;28;20040;-73
2023/01/23 01:43:55;;;;;;;34.65;22.27;;;;;;;0.81;78.58;100371.78;5108176;28;20292;-74
2023/01/23 01:46:24;;;;;;;28.50;19.00;;;;;;;0.39;78.38;100317.84;5108918;28;20048;-74
2023/01/23 01:49:00;;;;;;;29.63;18.02;;;;;;;0.80;78.56;100357.00;5108690;28;20031;-75
2023/01/23 01:51:31;;;;;;;31.05;20.00;;;;;;;0.11;78.55;100249.13;5107782;28;20036;-74
2023/01/23 01:54:05;;;;;;;28.63;19.88;;;;;;;0.81;78.66;100363.94;5108610;28;20052;-75
2023/01/23 01:56:39;;;;;;;29.05;19.77;;;;;;;0.80;78.75;100369.16;5108559;28;20295;-75
2023/01/23 01:59:07;;;;;;;31.25;19.27;;;;;;;0.80;78.80;100372.66;5108539;28;20057;-73
2023/01/23 02:01:35;;;;;;;28.60;18.35;;;;;;;0.80;78.63;100367.44;5108245;28;20101;-73
2023/01/23 02:04:02;;;;;;;33.17;19.85;;;;;;;0.81;78.50;100353.50;5108952;28;20374;-73
2023/01/23 02:06:29;;;;;;;31.90;19.27;;;;;;;0.81;78.64;100345.69;5108661;28;20094;-73
2023/01/23 02:09:02;;;;;;;31.40;19.90;;;;;;;0.79;78.71;100350.03;5108325;28;20044;-72
2023/01/23 02:11:29;;;;;;;31.05;19.60;;;;;;;0.78;78.79;100350.91;5107382;28;20288;-73
2023/01/23 02:13:56;;;;;;;30.10;20.13;;;;;;;0.77;78.89;100338.72;5108269;28;20123;-73
2023/01/23 02:16:28;;;;;;;27.27;19.02;;;;;;;0.78;78.78;100344.81;5107232;28;20323;-73
2023/01/23 02:18:59;;;;;;;27.55;18.17;;;;;;;0.77;78.83;100348.28;5108224;28;20032;-73
2023/01/23 02:21:27;;;;;;;30.63;19.02;;;;;;;0.78;78.89;100337.00;5108671;28;20338;-73
2023/01/23 02:24:14;;;;;;;27.45;19.17;;;;;;;0.78;79.09;100331.78;5107240;28;20304;-73
2023/01/23 02:26:44;;;;;;;28.58;18.52;;;;;;;0.77;78.92;100328.28;5108632;28;20054;-73
2023/01/23 02:29:12;;;;;;;33.35;20.85;;;;;;;0.20;78.90;100245.69;5107923;28;20044;-73
2023/01/23 02:31:41;;;;;;;32.92;20.02;;;;;;;0.81;78.84;100331.78;5107832;28;20044;-74
2023/01/23 02:34:11;;;;;;;31.92;20.15;;;;;;;0.79;79.25;100323.94;5108365;28;20048;-73
2023/01/23 02:36:40;;;;;;;32.20;20.67;;;;;;;0.79;79.25;100318.72;5106970;28;20287;-73
2023/01/23 02:39:09;;;;;;;34.53;21.25;;;;;;;0.81;79.15;100326.53;5106899;28;20058;-73
2023/01/23 02:41:38;;;;;;;35.67;22.27;;;;;;;0.82;79.01;100336.13;5106854;28;20050;-73
2023/01/23 02:44:12;;;;;;;34.67;21.83;;;;;;;0.82;79.18;100352.66;5108215;28;20044;-73
2023/01/23 02:46:39;;;;;;;35.10;20.48;;;;;;;0.83;79.28;100354.38;5107912;28;20048;-73
2023/01/23 02:49:06;;;;;;;30.95;19.23;;;;;;;0.81;79.20;100350.91;5107490;28;20043;-73
2023/01/23 02:51:32;;;;;;;36.58;22.48;;;;;;;0.82;79.27;100344.81;5106694;28;20094;-74
2023/01/23 02:53:59;;;;;;;34.03;23.33;;;;;;;0.82;79.31;100347.44;5107525;28;20062;-73
2023/01/23 02:56:26;;;;;;;36.13;21.88;;;;;;;0.82;79.39;100355.25;5106614;28;20044;-72
2023/01/23 03:01:44;;;;;;;33.28;22.10;;;;;;;0.79;79.42;100378.75;5087842;28;20115;-73
2023/01/23 03:04:10;;;;;;;32.38;22.05;;;;;;;0.79;79.46;100370.91;5106455;28;20173;-73
2023/01/23 03:06:38;;;;;;;32.40;21.17;;;;;;;0.73;79.37;100376.13;5106351;28;20044;-73
2023/01/23 03:09:08;;;;;;;35.13;21.95;;;;;;;0.79;79.47;100385.69;5107632;28;20050;-73
2023/01/23 03:11:36;;;;;;;36.38;23.38;;;;;;;0.59;79.50;100351.75;5106273;28;20031;-73
2023/01/23 03:14:05;;;;;;;32.80;21.83;;;;;;;0.82;79.45;100381.34;5106232;28;20032;-73
2023/01/23 03:16:31;;;;;;;34.50;21.40;;;;;;;0.81;79.66;100376.13;5106192;28;20044;-73
2023/01/23 03:19:03;;;;;;;31.98;20.25;;;;;;;0.82;79.48;100388.31;5106133;28;20058;-73
2023/01/23 03:21:31;;;;;;;34.28;21.67;;;;;;;0.80;79.57;100390.91;5106062;28;20090;-73
2023/01/23 03:23:57;;;;;;;33.05;22.70;;;;;;;0.80;79.60;100390.03;5106884;28;20052;-73
2023/01/23 03:26:25;;;;;;;36.60;21.98;;;;;;;0.81;79.68;100382.22;5106825;28;20051;-73
2023/01/23 03:31:35;;;;;;;35.97;22.38;;;;;;;0.82;79.71;100389.19;5105883;28;20067;-73
2023/01/23 03:34:04;;;;;;;34.10;22.05;;;;;;;0.39;79.71;100322.19;5105839;28;20040;-72
2023/01/23 03:36:31;;;;;;;32.08;20.73;;;;;;;0.82;79.61;100381.34;5107189;28;20187;-73
2023/01/23 03:41:44;;;;;;;31.65;21.77;;;;;;;0.83;79.60;100361.34;5106780;28;20039;-73
2023/01/23 03:44:11;;;;;;;33.42;22.00;;;;;;;0.86;79.54;100350.91;5107068;28;20244;-73
2023/01/23 03:46:38;;;;;;;31.95;20.55;;;;;;;0.88;79.44;100326.53;5106675;28;20230;-73
2023/01/23 03:49:06;;;;;;;32.20;20.73;;;;;;;0.90;79.53;100326.53;5106585;28;20035;-73
2023/01/23 03:51:33;;;;;;;28.13;20.25;;;;;;;0.89;79.50;100330.91;5105459;28;20043;-73
2023/01/23 03:54:00;;;;;;;30.42;19.60;;;;;;;0.89;79.39;100350.91;5106750;28;20048;-73
2023/01/23 03:56:27;;;;;;;30.88;21.90;;;;;;;0.88;79.39;100370.03;5105972;28;20043;-73
2023/01/23 03:58:54;;;;;;;33.75;20.65;;;;;;;0.87;79.56;100369.19;5106499;28;20292;-73
2023/01/23 04:01:21;;;;;;;29.48;20.33;;;;;;;0.87;79.40;100363.97;5105135;28;20036;-74
2023/01/23 04:03:49;;;;;;;34.92;23.48;;;;;;;0.88;79.37;100352.66;5105216;28;20280;-74
2023/01/23 04:06:18;;;;;;;29.65;20.67;;;;;;;0.72;79.52;100340.47;5105452;28;20142;-73
2023/01/23 04:08:45;;;;;;;30.95;20.80;;;;;;;0.89;79.46;100358.72;5105723;28;20195;-73
2023/01/23 04:11:12;;;;;;;30.58;20.20;;;;;;;0.90;79.34;100350.91;5105934;28;20054;-73
2023/01/23 04:13:39;;;;;;;33.17;20.30;;;;;;;0.90;79.27;100361.34;5106175;28;20100;-73
2023/01/23 04:16:07;;;;;;;35.65;22.20;;;;;;;0.91;79.28;100350.03;5105029;28;20195;-74
2023/01/23 04:18:34;;;;;;;36.88;22.65;;;;;;;0.92;79.35;100353.50;5105019;28;20036;-73
2023/01/23 04:21:01;;;;;;;33.30;22.92;;;;;;;0.90;79.32;100348.28;5105792;28;20052;-73
2023/01/23 04:23:29;;;;;;;35.55;22.52;;;;;;;0.90;79.46;100360.47;5106207;28;20044;-73
2023/01/23 04:25:57;;;;;;;35.78;22.38;;;;;;;0.88;nan;100362.22;5106060;28;20044;-73
2023/01/23 04:28:24;;;;;;;33.33;22.67;;;;;;;0.89;79.39;100351.78;5105897;28;20040;-73
2023/01/23 04:30:51;;;;;;;35.50;22.00;;;;;;;0.89;79.36;100354.38;5106008;28;20040;-74
2023/01/23 04:33:18;;;;;;;32.83;21.35;;;;;;;0.90;79.36;100348.28;5105710;28;20103;-74
2023/01/23 04:35:54;;;;;;;32.65;22.45;;;;;;;0.88;79.43;100357.88;5105966;28;20218;-73
2023/01/23 04:38:21;;;;;;;30.92;21.88;;;;;;;0.89;79.48;100351.78;5105601;28;20078;-73
2023/01/23 04:40:50;;;;;;;30.63;21.42;;;;;;;0.88;79.40;100350.03;5105256;28;20291;-73
2023/01/23 04:43:17;;;;;;;33.25;21.35;;;;;;;0.89;79.43;100351.78;5104970;28;20040;-73
2023/01/23 04:45:44;;;;;;;32.92;21.73;;;;;;;0.90;79.33;100343.06;5106095;28;20036;-72
2023/01/23 04:48:12;;;;;;;34.45;22.08;;;;;;;0.90;79.43;100355.25;5105448;28;20060;-73
2023/01/23 04:50:39;;;;;;;34.83;21.23;;;;;;;0.90;79.49;100355.25;5106020;28;20035;-73
2023/01/23 04:53:06;;;;;;;32.95;21.73;;;;;;;0.90;79.40;100344.81;5106035;28;20044;-73
2023/01/23 04:55:32;;;;;;;32.05;21.73;;;;;;;0.90;79.47;100342.22;5105699;28;20048;-73
2023/01/23 04:58:01;;;;;;;31.33;20.65;;;;;;;0.90;79.27;100348.28;5105489;28;20043;-73
2023/01/23 05:00:29;;;;;;;34.63;21.58;;;;;;;0.92;79.47;100350.91;5105435;28;20036;-73
2023/01/23 05:02:57;;;;;;;34.75;21.38;;;;;;;0.90;79.49;100348.28;5105307;28;20052;-73
2023/01/23 05:05:25;;;;;;;33.78;20.98;;;;;;;0.91;79.41;100352.66;5105339;28;20036;-73
2023/01/23 05:07:52;;;;;;;32.65;20.77;;;;;;;0.92;79.52;100363.97;5105039;28;20047;-73
2023/01/23 05:10:19;;;;;;;34.10;21.38;;;;;;;0.90;79.84;100363.97;5104088;28;20058;-73
2023/01/23 05:12:46;;;;;;;32.72;20.60;;;;;;;0.90;79.60;100353.50;5104517;28;20040;-73
2023/01/23 05:15:16;;;;;;;34.85;22.05;;;;;;;0.92;79.57;100358.72;5105155;28;20044;-73
2023/01/23 05:17:43;;;;;;;34.55;21.42;;;;;;;0.91;79.60;100360.47;5105326;28;20044;-73
2023/01/23 05:20:11;;;;;;;32.70;21.23;;;;;;;0.91;79.51;100362.22;5104230;28;20036;-73
2023/01/23 05:22:37;;;;;;;30.38;20.10;;;;;;;0.91;79.58;100349.16;5104112;28;20044;-73
2023/01/23 05:25:05;;;;;;;31.92;19.17;;;;;;;0.90;79.61;100348.28;5104955;28;20105;-73
2023/01/23 05:27:32;;;;;;;31.10;19.63;;;;;;;0.89;79.58;100349.16;5105018;28;20310;-73
2023/01/23 05:29:59;;;;;;;32.35;19.15;;;;;;;0.90;79.81;100355.25;5105031;28;20361;-73
2023/01/23 05:32:27;;;;;;;27.45;19.08;;;;;;;0.72;79.79;100321.31;5104195;28;20090;-73
2023/01/23 05:34:54;;;;;;;28.63;19.58;;;;;;;0.91;79.69;100354.38;5105521;28;20048;-73
2023/01/23 05:37:24;;;;;;;28.05;18.65;;;;;;;0.91;79.60;100357.88;5105258;28;20054;-73
2023/01/23 05:39:51;;;;;;;29.02;18.67;;;;;;;0.90;79.73;100355.25;5105230;28;20040;-73
2023/01/23 05:42:17;;;;;;;28.30;18.90;;;;;;;0.90;79.78;100365.69;5103938;28;20058;-73
2023/01/23 05:44:44;;;;;;;25.40;17.73;;;;;;;0.88;79.82;100370.91;5104853;28;20040;-72
2023/01/23 05:47:11;;;;;;;29.02;18.52;;;;;;;0.88;79.92;100375.25;5104836;28;20032;-73
2023/01/23 05:49:39;;;;;;;25.73;17.80;;;;;;;0.86;79.81;100366.56;5104792;28;20199;-73
2023/01/23 05:52:06;;;;;;;25.27;17.05;;;;;;;0.86;79.92;100367.44;5106240;28;20288;-73
2023/01/23 05:54:33;;;;;;;24.75;14.80;;;;;;;0.87;79.78;100376.13;5107589;28;20212;-72
2023/01/23 05:57:02;;;;;;;23.27;16.35;;;;;;;0.87;79.81;100379.63;5108314;28;20226;-73
2023/01/23 05:59:29;;;;;;;21.33;15.57;;;;;;;0.87;79.84;100377.00;5107895;28;20101;-73
2023/01/23 06:01:55;;;;;;;24.55;16.92;;;;;;;0.86;79.63;100377.00;5108568;28;20063;-73
2023/01/23 06:04:22;;;;;;;24.35;15.52;;;;;;;0.86;79.89;100387.44;5108275;28;20054;-73
2023/01/23 06:06:51;;;;;;;23.85;16.00;;;;;;;0.86;79.85;100392.66;5108718;28;20039;-73
2023/01/23 06:09:17;;;;;;;20.15;15.48;;;;;;;0.86;79.69;100403.97;5108639;28;20043;-73
2023/01/23 06:11:44;;;;;;;21.75;14.55;;;;;;;0.87;79.62;100413.53;5107237;28;20047;-73
2023/01/23 06:14:11;;;;;;;24.15;15.45;;;;;;;0.85;79.77;100423.09;5108109;28;20036;-73
2023/01/23 06:16:38;;;;;;;20.52;14.40;;;;;;;0.88;79.65;100427.47;5107180;28;20296;-73
2023/01/23 06:19:05;;;;;;;20.42;13.52;;;;;;;0.46;79.66;100361.31;5107098;28;20246;-73
2023/01/23 06:21:32;;;;;;;20.38;14.23;;;;;;;0.86;79.72;100427.47;5107079;28;20036;-73
2023/01/23 06:24:00;;;;;;;18.15;13.60;;;;;;;0.85;79.70;100428.34;5108194;28;20044;-73
2023/01/23 06:26:27;;;;;;;20.25;14.43;;;;;;;0.88;79.50;100427.47;5108176;28;20059;-73
2023/01/23 06:28:54;;;;;;;19.35;13.60;;;;;;;0.04;79.54;100283.00;5107724;28;20040;-73
2023/01/23 06:31:21;;;;;;;20.17;15.45;;;;;;;0.89;79.54;100445.72;5108307;28;20046;-73
2023/01/23 06:33:50;;;;;;;21.73;14.18;;;;;;;0.91;79.60;100453.56;5108148;28;20063;-73
2023/01/23 06:36:17;;;;;;;24.95;15.10;;;;;;;0.89;79.54;100455.31;5108022;28;20198;-73
2023/01/23 06:38:44;;;;;;;23.17;15.38;;;;;;;0.88;79.71;100458.78;5106836;28;20039;-73
2023/01/23 06:41:12;;;;;;;23.13;16.23;;;;;;;0.88;79.69;100459.66;5107551;28;20058;-73
2023/01/23 06:43:39;;;;;;;19.73;15.02;;;;;;;0.90;79.64;100454.44;5107689;28;20327;-73
2023/01/23 06:46:08;;;;;;;19.45;14.25;;;;;;;0.90;79.62;100460.53;5107531;28;20051;-73
2023/01/23 06:48:35;;;;;;;22.05;14.77;;;;;;;0.92;79.57;100456.19;5107354;28;20044;-73
2023/01/23 06:51:02;;;;;;;24.30;16.42;;;;;;;0.92;79.45;100465.75;5107971;28;20044;-73
2023/01/23 06:53:29;;;;;;;22.08;15.35;;;;;;;0.93;79.41;100459.66;5107260;28;20050;-73
2023/01/23 06:56:00;;;;;;;22.38;14.88;;;;;;;0.89;79.71;100463.13;5108008;28;20237;-73
2023/01/23 06:58:28;;;;;;;22.00;14.27;;;;;;;0.87;79.62;100444.88;5106279;28;20097;-73
2023/01/23 07:00:55;;;;;;;20.67;15.07;;;;;;;0.88;79.52;100446.59;5107152;28;20036;-73
2023/01/23 07:03:23;;;;;;;21.55;14.98;;;;;;;0.88;79.68;100454.44;5105178;28;20059;-73
2023/01/23 07:05:50;;;;;;;21.17;15.38;;;;;;;0.90;79.63;100449.22;5106273;28;20039;-73
2023/01/23 07:08:17;;;;;;;22.08;15.43;;;;;;;0.91;79.70;100444.00;5106933;28;20280;-73
2023/01/23 07:10:44;;;;;;;21.20;15.45;;;;;;;0.91;79.59;100451.81;5107343;28;20054;-73
2023/01/23 07:13:11;;;;;;;20.05;13.52;;;;;;;0.52;79.63;100413.50;5106685;28;20043;-72
2023/01/23 07:15:40;;;;;;;22.85;16.55;;;;;;;0.79;79.51;100438.75;5106942;28;20032;-73
2023/01/23 07:18:06;;;;;;;20.13;14.80;;;;;;;0.92;79.59;100457.91;5106981;28;20097;-73
2023/01/23 07:20:34;;;;;;;21.38;14.15;;;;;;;0.93;79.63;100462.28;5107393;28;20044;-73
2023/01/23 07:23:01;;;;;;;20.05;14.32;;;;;;;0.92;79.55;100461.41;5105994;28;20040;-73
2023/01/23 07:25:27;;;;;;;22.52;15.70;;;;;;;0.93;79.67;100470.97;5107343;28;20058;-73
2023/01/23 07:27:54;;;;;;;21.15;16.10;;;;;;;0.93;79.60;100477.94;5106691;28;20228;-73
2023/01/23 07:30:21;;;;;;;19.92;14.57;;;;;;;0.94;79.70;100469.22;5106195;28;20089;-73
2023/01/23 07:32:50;;;;;;;23.80;15.23;;;;;;;0.97;79.71;100468.38;5106930;28;20047;-74
2023/01/23 07:35:16;;;;;;;21.90;14.18;;;;;;;0.97;79.75;100484.91;5105463;28;20044;-74
2023/01/23 07:37:43;;;;;;;24.40;16.17;;;;;;;0.97;79.59;100477.06;5106675;28;20105;-73
2023/01/23 07:40:11;;;;;;;23.40;15.43;;;;;;;0.99;79.53;100474.47;5106565;28;20063;-74
2023/01/23 07:42:38;;;;;;;25.42;17.10;;;;;;;0.99;79.69;100469.25;5106686;28;20303;-73
2023/01/23 07:45:06;;;;;;;21.80;14.80;;;;;;;1.00;79.58;100471.84;5106446;28;20101;-74
2023/01/23 07:47:33;;;;;;;22.50;16.05;;;;;;;1.00;79.58;100471.84;5106460;28;20116;-73
2023/01/23 07:50:01;;;;;;;20.58;14.60;;;;;;;1.00;79.65;100469.25;5105054;28;20079;-73
2023/01/23 07:52:28;;;;;;;21.55;14.15;;;;;;;1.02;79.61;100464.03;5106263;28;20195;-74
2023/01/23 07:54:55;;;;;;;22.95;17.85;;;;;;;1.03;79.59;100450.09;5106441;28;20039;-74
2023/01/23 07:57:22;;;;;;;22.33;14.88;;;;;;;-1.87;79.30;99964.00;5106134;28;20223;-73
2023/01/23 07:59:49;;;;;;;21.30;15.15;;;;;;;1.01;79.74;100446.63;5105450;28;20180;-74
2023/01/23 08:02:15;;;;;;;22.08;15.73;;;;;;;1.03;79.70;100447.50;5104977;28;20247;-74
2023/01/23 08:04:42;;;;;;;22.17;15.23;;;;;;;0.99;79.66;100469.25;5106214;28;20047;-74
2023/01/23 08:07:10;;;;;;;21.42;15.05;;;;;;;0.98;79.83;100488.38;5105327;28;20050;-74
2023/01/23 08:09:37;;;;;;;19.83;15.45;;;;;;;0.98;79.83;100486.66;5106470;28;20044;-74
2023/01/23 08:12:05;;;;;;;21.42;15.52;;;;;;;1.00;79.69;100473.59;5106275;28;20287;-73
2023/01/23 08:14:32;;;;;;;24.55;17.15;;;;;;;1.02;79.66;100477.06;5105054;28;20040;-74
2023/01/23 08:17:00;;;;;;;22.75;15.60;;;;;;;1.02;79.81;100474.47;5104896;28;20057;-74
2023/01/23 08:19:27;;;;;;;23.20;15.73;;;;;;;1.03;79.66;100476.22;5106054;28;20078;-73
2023/01/23 08:21:54;;;;;;;24.08;16.35;;;;;;;0.92;79.69;100463.13;5106709;28;20153;-73
2023/01/23 08:24:22;;;;;;;26.30;17.00;;;;;;;1.05;79.98;100482.31;5106348;28;20047;-73
2023/01/23 08:26:49;;;;;;;22.42;16.08;;;;;;;1.06;79.77;100476.22;5106286;28;20227;-74
2023/01/23 08:29:16;;;;;;;23.15;16.38;;;;;;;1.07;79.79;100468.38;5104803;28;20040;-74
2023/01/23 08:31:42;;;;;;;24.58;16.73;;;;;;;1.09;79.61;100484.91;5105649;28;20054;-74
2023/01/23 08:34:09;;;;;;;25.73;16.88;;;;;;;1.11;79.55;100479.69;5104807;28;20046;-74
2023/01/23 08:36:36;;;;;;;28.35;17.88;;;;;;;1.10;79.75;100489.28;5104818;28;20044;-74
2023/01/23 08:39:03;;;;;;;23.90;17.17;;;;;;;-1.85;79.37;99985.66;5088107;28;20055;-74
2023/01/23 08:41:31;;;;;;;24.75;17.15;;;;;;;1.09;79.84;100489.28;5105877;28;20066;-74
2023/01/23 08:44:00;;;;;;;28.23;17.20;;;;;;;1.09;79.82;100502.31;5105083;28;20036;-74
2023/01/23 08:46:27;;;;;;;25.77;18.08;;;;;;;1.09;79.96;100499.72;5105904;28;20058;-74
2023/01/23 08:48:54;;;;;;;29.08;18.77;;;;;;;1.09;79.75;100484.91;5105476;28;20032;-74
2023/01/23 08:51:21;;;;;;;26.45;19.13;;;;;;;1.12;79.80;100484.91;5105680;28;20070;-74
2023/01/23 08:53:51;;;;;;;25.73;17.67;;;;;;;1.05;79.39;100474.47;5105724;28;20040;-73
2023/01/23 08:56:20;;;;;;;24.67;16.30;;;;;;;1.13;79.81;100484.06;5104623;28;20036;-74
2023/01/23 08:58:48;;;;;;;25.27;17.20;;;;;;;1.13;79.79;100485.78;5105607;28;20266;-75
2023/01/23 09:01:18;;;;;;;25.92;18.73;;;;;;;1.16;79.68;100489.28;5105623;28;20078;-74
2023/01/23 09:03:45;;;;;;;27.60;16.58;;;;;;;1.18;79.59;100486.66;5105297;28;20051;-74
2023/01/23 09:06:13;;;;;;;30.05;18.55;;;;;;;0.57;79.75;100382.19;5105513;28;20035;-74
2023/01/23 09:08:39;;;;;;;29.40;17.63;;;;;;;1.15;79.89;100479.69;5105183;28;20058;-74
2023/01/23 09:11:08;;;;;;;26.25;16.75;;;;;;;1.07;79.93;100470.13;5104436;28;20046;-74
2023/01/23 09:13:35;;;;;;;32.17;20.27;;;;;;;1.16;79.93;100491.88;5105504;28;20058;-74
2023/01/23 09:16:07;;;;;;;27.80;18.42;;;;;;;1.16;80.08;100493.63;5105241;28;20055;-74
2023/01/23 09:18:34;;;;;;;27.23;17.40;;;;;;;1.17;79.96;100482.31;5105641;28;20047;-74
2023/01/23 09:21:06;;;;;;;25.15;16.48;;;;;;;1.17;80.07;100485.78;5105270;28;20036;-74
2023/01/23 09:23:33;;;;;;;28.48;17.05;;;;;;;1.17;80.03;100477.97;5105192;28;20073;-74
2023/01/23 09:26:03;;;;;;;28.33;16.63;;;;;;;1.19;80.07;100480.56;5105583;28;20040;-74
2023/01/23 09:28:30;;;;;;;26.58;17.10;;;;;;;1.19;80.11;100480.56;5108985;28;20173;-74
2023/01/23 09:30:57;;;;;;;27.05;17.83;;;;;;;1.19;80.05;100484.06;5109599;28;20213;-74
2023/01/23 09:33:26;;;;;;;26.13;16.95;;;;;;;1.20;80.08;100479.69;5108509;28;20081;-73
2023/01/23 09:35:53;;;;;;;22.42;17.05;;;;;;;0.76;80.05;100411.78;5109243;28;20057;-73
2023/01/23 09:38:20;;;;;;;23.95;15.27;;;;;;;1.20;80.26;100474.47;5109018;28;20044;-74
2023/01/23 09:40:51;;;;;;;24.63;16.08;;;;;;;1.21;80.10;100473.59;5108149;28;20028;-74
2023/01/23 09:43:24;;;;;;;24.25;16.05;;;;;;;1.22;80.27;100480.56;5108832;28;20040;-73
2023/01/23 09:46:01;;;;;;;26.13;17.02;;;;;;;1.22;80.50;100480.56;5108667;28;20044;-74
2023/01/23 09:48:43;;;;;;;22.98;13.85;;;;;;;1.22;80.38;100486.66;5107676;28;20044;-73
2023/01/23 09:51:18;;;;;;;22.90;14.60;;;;;;;1.23;80.37;100483.19;5108390;28;20046;-74
2023/01/23 09:53:45;;;;;;;21.98;14.98;;;;;;;1.27;80.31;100473.63;5108982;28;20040;-73
2023/01/23 09:56:22;;;;;;;22.30;14.70;;;;;;;1.29;80.17;100477.09;5109034;28;20048;-74
2023/01/23 09:59:02;;;;;;;23.92;15.38;;;;;;;1.30;80.18;100478.84;5108452;28;20103;-74
2023/01/23 10:01:31;;;;;;;21.52;14.95;;;;;;;1.32;80.17;100477.09;5108723;28;20058;-74
2023/01/23 10:04:01;;;;;;;21.15;14.43;;;;;;;1.34;79.90;100471.88;5108692;28;20039;-74
2023/01/23 10:06:30;;;;;;;22.58;14.85;;;;;;;1.16;79.99;100441.41;5107418;28;20200;-73
2023/01/23 10:09:26;;;;;;;22.02;13.32;;;;;;;-1.13;79.81;100047.47;5108245;28;20260;-74
2023/01/23 10:12:09;;;;;;;20.80;13.80;;;;;;;0.93;80.02;100394.41;5102093;28;20076;-74
2023/01/23 10:14:58;;;;;;;20.42;14.60;;;;;;;1.34;80.10;100474.47;5107805;28;20048;-74
2023/01/23 10:17:34;;;;;;;20.75;13.13;;;;;;;1.33;80.00;100468.38;5108639;28;20040;-74
2023/01/23 10:20:33;;;;;;;20.60;12.82;;;;;;;1.32;80.24;100473.63;5108109;28;20058;-74
2023/01/23 10:23:11;;;;;;;23.20;14.48;;;;;;;1.32;80.07;100474.47;5102531;28;20194;-74
2023/01/23 10:25:41;;;;;;;21.05;13.30;;;;;;;1.16;79.93;100444.00;5108064;28;20047;-74
2023/01/23 10:28:25;;;;;;;19.45;13.82;;;;;;;1.36;80.17;100471.00;5108491;28;20047;-73
2023/01/23 10:30:58;;;;;;;19.33;13.13;;;;;;;1.37;80.18;100470.13;5106847;28;20048;-74
2023/01/23 10:33:33;;;;;;;19.50;12.55;;;;;;;1.40;79.96;100470.13;5108087;28;20703;-73
2023/01/23 10:36:03;;;;;;;18.75;13.57;;;;;;;1.41;79.91;100465.78;5107867;28;20035;-74
2023/01/23 10:38:46;;;;;;;23.25;14.85;;;;;;;1.42;79.93;100473.63;5107827;28;20294;-74
2023/01/23 10:41:18;;;;;;;17.55;13.10;;;;;;;1.44;79.85;100465.78;5107513;28;20102;-74
2023/01/23 10:43:46;;;;;;;18.15;13.98;;;;;;;1.45;79.72;100470.13;5107998;28;20036;-74
2023/01/23 10:46:15;;;;;;;20.42;12.50;;;;;;;1.46;79.77;100469.25;5107775;28;20052;-73
2023/01/23 10:48:46;;;;;;;20.33;13.55;;;;;;;1.47;79.75;100468.38;5107487;28;20036;-73
2023/01/23 10:51:32;;;;;;;21.42;14.05;;;;;;;1.46;80.03;100467.50;5107381;28;20032;-74
2023/01/23 10:54:05;;;;;;;18.92;14.00;;;;;;;1.43;79.86;100461.41;5107194;28;20035;-74
2023/01/23 10:56:35;;;;;;;22.25;14.00;;;;;;;1.46;79.78;100464.03;5107896;28;20039;-74
2023/01/23 10:59:03;;;;;;;19.02;13.35;;;;;;;1.46;79.72;100459.69;5107967;28;20048;-74
2023/01/23 11:01:33;;;;;;;20.10;15.02;;;;;;;1.46;79.60;100453.59;5107431;28;20121;-75
2023/01/23 11:04:10;;;;;;;21.45;14.27;;;;;;;1.46;79.82;100450.97;5106329;28;20040;-74
2023/01/23 11:06:37;;;;;;;20.15;14.60;;;;;;;1.46;79.76;100445.75;5107479;28;20051;-74
2023/01/23 11:09:19;;;;;;;21.10;14.13;;;;;;;1.49;80.04;100430.06;5107433;28;20040;-74
2023/01/23 11:12:03;;;;;;;22.17;14.70;;;;;;;0.99;79.73;100355.25;5107382;28;20040;-73
2023/01/23 11:14:30;;;;;;;21.70;15.73;;;;;;;1.49;79.75;100436.16;5107485;28;20046;-73
2023/01/23 11:17:14;;;;;;;21.75;13.57;;;;;;;1.49;79.83;100433.53;5107567;28;20109;-74
2023/01/23 11:19:42;;;;;;;20.85;16.08;;;;;;;1.51;79.55;100426.56;5106983;28;20227;-74
2023/01/23 11:22:26;;;;;;;18.65;13.55;;;;;;;1.52;79.77;100428.31;5106263;28;20067;-74
2023/01/23 11:24:54;;;;;;;21.77;14.48;;;;;;;1.51;79.61;100423.97;5107031;28;20050;-74
2023/01/23 11:27:25;;;;;;;17.35;13.13;;;;;;;1.52;79.47;100407.41;5107278;28;20044;-74
2023/01/23 11:30:33;;;;;;;19.60;12.80;;;;;;;1.53;79.68;100406.53;5105570;28;20070;-74
2023/01/23 11:33:06;;;;;;;21.13;15.82;;;;;;;1.52;79.52;100402.19;5106689;28;20358;-74